Time;durP1;ratioP1;P1;durP2;ratioP2;P2;SDS_P1;SDS_P2;PMS_P1;PMS_P2;Temp;Humidity;BMP_temperature;BMP_pressure;BME280_temperature;BME280_humidity;BME280_pressure;Samples;Min_cycle;Max_cycle;Signal;HPM_P1;HPM_P2
2022/04/23 00:00:50;;;;;;;12.88;9.52;;;11.70;99.90;;;;;;5092875;28;20198;-47
2022/04/23 00:03:16;;;;;;;10.77;9.68;;;11.60;99.90;;;;;;5092909;28;20170;-45
2022/04/23 00:05:41;;;;;;;9.82;8.77;;;11.60;99.90;;;;;;5092503;28;20166;-49
2022/04/23 00:08:08;;;;;;;10.35;9.20;;;11.50;99.90;;;;;;5091386;28;20166;-45
2022/04/23 00:10:35;;;;;;;12.77;9.73;;;11.50;99.90;;;;;;5092725;28;20251;-44
2022/04/23 00:13:00;;;;;;;9.88;8.88;;;11.50;99.90;;;;;;5092809;28;20277;-45
2022/04/23 00:15:27;;;;;;;12.88;9.80;;;11.40;99.90;;;;;;5092561;28;20214;-48
2022/04/23 00:17:53;;;;;;;11.57;9.05;;;11.40;99.90;;;;;;5092752;28;20176;-44
2022/04/23 00:20:19;;;;;;;11.80;9.38;;;11.40;99.90;;;;;;5092714;28;20535;-48
2022/04/23 00:22:44;;;;;;;11.05;9.57;;;11.40;99.90;;;;;;5092247;28;20609;-45
2022/04/23 00:25:10;;;;;;;10.00;8.85;;;11.40;99.90;;;;;;5092374;28;20169;-50
2022/04/23 00:27:36;;;;;;;10.45;9.40;;;11.40;99.90;;;;;;5092262;28;20638;-46
2022/04/23 00:30:02;;;;;;;12.25;9.70;;;11.50;99.90;;;;;;5092338;28;20176;-45
2022/04/23 00:32:29;;;;;;;9.73;8.68;;;11.40;99.90;;;;;;5092105;28;20205;-49
2022/04/23 00:34:54;;;;;;;11.32;9.77;;;11.30;99.90;;;;;;5091603;28;20192;-45
2022/04/23 00:37:20;;;;;;;10.43;9.27;;;11.30;99.90;;;;;;5092176;28;20208;-48
2022/04/23 00:39:46;;;;;;;10.98;9.48;;;11.40;99.90;;;;;;5092117;28;20166;-46
2022/04/23 00:42:11;;;;;;;11.38;9.60;;;11.30;99.90;;;;;;5092339;28;20208;-50
2022/04/23 00:44:38;;;;;;;11.80;9.77;;;11.30;99.90;;;;;;5091946;28;20165;-51
2022/04/23 00:47:04;;;;;;;11.43;9.68;;;11.30;99.90;;;;;;5092204;28;20166;-51
2022/04/23 00:49:30;;;;;;;10.48;9.38;;;11.20;99.90;;;;;;5092269;28;20324;-46
2022/04/23 00:51:55;;;;;;;12.10;9.93;;;11.10;99.90;;;;;;5091876;28;20284;-45
2022/04/23 00:54:24;;;;;;;11.35;9.38;;;11.20;99.90;;;;;;5092190;28;20173;-44
2022/04/23 00:56:50;;;;;;;12.48;10.73;;;11.20;99.90;;;;;;5091978;28;20169;-44
2022/04/23 00:59:15;;;;;;;10.43;9.35;;;11.20;99.90;;;;;;5092054;28;20165;-45
2022/04/23 01:01:42;;;;;;;13.35;10.57;;;11.20;99.90;;;;;;5091624;28;20613;-44
2022/04/23 01:04:09;;;;;;;11.98;9.38;;;11.20;99.90;;;;;;5091997;28;20178;-44
2022/04/23 01:06:35;;;;;;;12.75;9.27;;;11.20;99.90;;;;;;5091741;28;20170;-44
2022/04/23 01:09:07;;;;;;;11.68;9.68;;;11.20;99.90;;;;;;5091774;28;20177;-44
2022/04/23 01:11:32;;;;;;;10.95;9.27;;;11.20;99.90;;;;;;5091612;28;20200;-44
2022/04/23 01:14:00;;;;;;;10.30;9.20;;;11.20;99.90;;;;;;5090437;28;20219;-44
2022/04/23 01:16:25;;;;;;;11.13;9.57;;;11.10;99.90;;;;;;5092011;28;20256;-44
2022/04/23 01:18:51;;;;;;;10.60;9.40;;;11.10;99.90;;;;;;5091678;28;20261;-44
2022/04/23 01:21:17;;;;;;;13.75;9.43;;;11.00;99.90;;;;;;5091725;28;20176;-46
2022/04/23 01:23:46;;;;;;;12.23;9.68;;;11.10;99.90;;;;;;5091415;28;20165;-44
2022/04/23 01:26:14;;;;;;;12.75;9.45;;;11.10;99.90;;;;;;5091426;28;20529;-44
2022/04/23 01:28:40;;;;;;;11.70;10.48;;;11.10;99.90;;;;;;5088815;28;20166;-43
2022/04/23 01:31:07;;;;;;;13.38;9.70;;;11.00;99.90;;;;;;5091205;28;20207;-45
2022/04/23 01:33:36;;;;;;;11.55;10.07;;;11.00;99.90;;;;;;5091445;28;20250;-44
2022/04/23 01:36:02;;;;;;;13.82;10.27;;;11.00;99.90;;;;;;5091174;28;20169;-44
2022/04/23 01:38:28;;;;;;;12.13;9.25;;;11.00;99.90;;;;;;5091103;28;20270;-44
2022/04/23 01:40:54;;;;;;;12.20;10.32;;;10.90;99.90;;;;;;5091125;28;20171;-43
2022/04/23 01:43:20;;;;;;;10.95;9.07;;;10.90;99.90;;;;;;5091297;28;20169;-45
2022/04/23 01:45:46;;;;;;;12.98;10.27;;;10.90;99.90;;;;;;5091047;28;20165;-44
2022/04/23 01:48:11;;;;;;;13.77;9.98;;;10.90;99.90;;;;;;5090797;28;20165;-44
2022/04/23 01:50:37;;;;;;;12.27;10.57;;;10.90;99.90;;;;;;5091062;28;20172;-45
2022/04/23 01:53:04;;;;;;;12.30;9.48;;;10.90;99.90;;;;;;5090897;28;20196;-51
2022/04/23 01:55:30;;;;;;;12.85;10.25;;;10.80;99.90;;;;;;5091155;28;20176;-46
2022/04/23 01:57:56;;;;;;;14.45;10.48;;;10.80;99.90;;;;;;5091024;28;20740;-49
2022/04/23 02:00:21;;;;;;;13.98;10.48;;;10.80;99.90;;;;;;5091152;28;20244;-48
2022/04/23 02:02:47;;;;;;;11.80;9.85;;;10.80;99.90;;;;;;5090781;28;20575;-50
2022/04/23 02:05:12;;;;;;;12.77;9.82;;;10.60;99.90;;;;;;5090864;28;20177;-48
2022/04/23 02:07:43;;;;;;;12.45;10.07;;;10.60;99.90;;;;;;5089673;28;20205;-49
2022/04/23 02:10:11;;;;;;;12.88;10.98;;;10.60;99.90;;;;;;5090807;28;20583;-49
2022/04/23 02:12:40;;;;;;;14.23;11.10;;;10.50;99.90;;;;;;5090700;28;20235;-47
2022/04/23 02:15:10;;;;;;;14.18;10.00;;;10.50;99.90;;;;;;5090842;28;20526;-46
2022/04/23 02:17:41;;;;;;;14.10;10.80;;;10.20;99.90;;;;;;5090770;28;20199;-50
2022/04/23 02:20:10;;;;;;;14.15;10.35;;;10.20;99.90;;;;;;5090726;28;20238;-49
2022/04/23 02:22:36;;;;;;;14.48;11.02;;;10.30;99.90;;;;;;5090653;28;20598;-49
2022/04/23 02:25:05;;;;;;;13.70;11.52;;;10.30;99.90;;;;;;5090754;28;20169;-47
2022/04/23 02:27:43;;;;;;;15.05;11.30;;;10.20;99.90;;;;;;5090887;28;20184;-49
2022/04/23 02:30:09;;;;;;;14.70;12.02;;;10.10;99.90;;;;;;5090957;28;20170;-48
2022/04/23 02:32:35;;;;;;;14.98;12.65;;;10.10;99.90;;;;;;5090808;28;20212;-50
2022/04/23 02:35:00;;;;;;;15.40;12.80;;;10.10;99.90;;;;;;5090650;28;20272;-46
2022/04/23 02:37:32;;;;;;;19.10;13.52;;;10.10;99.90;;;;;;5090543;28;20219;-49
2022/04/23 02:39:58;;;;;;;15.40;13.05;;;10.10;99.90;;;;;;5090799;28;20177;-49
2022/04/23 02:42:23;;;;;;;18.52;13.63;;;10.00;99.90;;;;;;5090487;28;20169;-48
2022/04/23 02:44:49;;;;;;;16.85;14.43;;;10.10;99.90;;;;;;5090788;28;20169;-50
2022/04/23 02:47:14;;;;;;;20.98;13.75;;;10.10;99.90;;;;;;5090388;28;20169;-48
2022/04/23 02:49:40;;;;;;;16.55;14.52;;;10.10;99.90;;;;;;5090496;28;20303;-48
2022/04/23 02:52:06;;;;;;;18.23;14.90;;;10.20;99.90;;;;;;5090352;28;20205;-48
2022/04/23 02:54:31;;;;;;;17.45;13.75;;;10.20;99.90;;;;;;5090391;28;20629;-48
2022/04/23 02:56:57;;;;;;;15.02;13.27;;;10.10;99.90;;;;;;5090448;28;20184;-47
2022/04/23 02:59:22;;;;;;;16.60;14.43;;;10.10;99.90;;;;;;5092592;28;20169;-45
2022/04/23 03:01:48;;;;;;;17.38;13.73;;;10.10;99.90;;;;;;5094231;28;20790;-49
2022/04/23 03:04:15;;;;;;;17.13;13.88;;;10.10;99.90;;;;;;5093946;28;20248;-49
2022/04/23 03:06:40;;;;;;;17.52;14.45;;;10.10;99.90;;;;;;5094263;28;20248;-46
2022/04/23 03:09:06;;;;;;;16.08;14.27;;;10.10;99.90;;;;;;5093918;28;20287;-47
2022/04/23 03:11:32;;;;;;;17.38;14.38;;;10.10;99.90;;;;;;5093799;28;20250;-44
2022/04/23 03:13:58;;;;;;;16.45;13.52;;;10.00;99.90;;;;;;5093744;28;20173;-46
2022/04/23 03:16:27;;;;;;;20.00;14.55;;;10.00;99.90;;;;;;5093573;28;20169;-43
2022/04/23 03:18:53;;;;;;;18.45;15.57;;;10.00;99.90;;;;;;5093969;28;20169;-43
2022/04/23 03:21:19;;;;;;;16.23;14.52;;;9.90;99.90;;;;;;5093888;28;20256;-45
2022/04/23 03:23:44;;;;;;;17.88;14.05;;;9.90;99.90;;;;;;5091760;28;20634;-44
2022/04/23 03:26:10;;;;;;;18.25;15.38;;;9.90;99.90;;;;;;5093470;28;20184;-44
2022/04/23 03:28:35;;;;;;;20.33;15.10;;;10.00;99.90;;;;;;5093694;28;20166;-44
2022/04/23 03:31:02;;;;;;;20.00;14.40;;;9.90;99.90;;;;;;5093295;28;20234;-44
2022/04/23 03:33:28;;;;;;;19.77;14.68;;;9.90;99.90;;;;;;5093518;28;20181;-44
2022/04/23 03:35:54;;;;;;;19.95;15.95;;;9.80;99.90;;;;;;5093599;28;20223;-46
2022/04/23 03:38:19;;;;;;;19.92;15.88;;;9.70;99.90;;;;;;5093534;28;20173;-45
2022/04/23 03:40:48;;;;;;;20.25;16.40;;;9.70;99.90;;;;;;5093309;28;20252;-52
2022/04/23 03:43:13;;;;;;;21.02;16.08;;;9.70;99.90;;;;;;5093402;28;20205;-48
2022/04/23 03:45:39;;;;;;;21.38;16.60;;;9.70;99.90;;;;;;5093391;28;20674;-51
2022/04/23 03:48:05;;;;;;;22.20;16.60;;;9.80;99.90;;;;;;5093104;28;20184;-47
2022/04/23 03:50:30;;;;;;;25.38;19.23;;;9.80;99.90;;;;;;5093316;28;20169;-48
2022/04/23 03:52:56;;;;;;;20.60;16.92;;;9.80;99.90;;;;;;5092913;28;20718;-52
2022/04/23 03:55:22;;;;;;;20.73;16.08;;;9.80;99.90;;;;;;5093091;28;20170;-50
2022/04/23 03:57:52;;;;;;;21.48;17.38;;;9.70;99.90;;;;;;5093219;28;20172;-48
2022/04/23 04:00:20;;;;;;;21.35;16.55;;;9.70;99.90;;;;;;5093064;28;20173;-50
2022/04/23 04:02:46;;;;;;;22.67;16.58;;;9.60;99.90;;;;;;5092582;28;20221;-52
2022/04/23 04:05:12;;;;;;;22.95;16.75;;;9.60;99.90;;;;;;5093019;28;20615;-50
2022/04/23 04:07:44;;;;;;;21.40;16.35;;;9.60;99.90;;;;;;5092703;28;20176;-50
2022/04/23 04:10:16;;;;;;;19.77;16.00;;;9.50;99.90;;;;;;5092683;28;20173;-50
2022/04/23 04:12:41;;;;;;;22.13;16.67;;;9.50;99.90;;;;;;5092767;28;20217;-51
2022/04/23 04:15:09;;;;;;;22.48;17.27;;;9.50;99.90;;;;;;5092142;28;20181;-51
2022/04/23 04:17:35;;;;;;;21.13;16.25;;;9.50;99.90;;;;;;5092911;28;20203;-52
2022/04/23 04:20:02;;;;;;;20.88;16.48;;;9.40;99.90;;;;;;5092444;28;20607;-46
2022/04/23 04:22:29;;;;;;;22.95;17.58;;;9.50;99.90;;;;;;5092386;28;20249;-49
2022/04/23 04:24:54;;;;;;;25.30;17.08;;;9.50;99.90;;;;;;5092684;28;20257;-52
2022/04/23 04:27:20;;;;;;;20.80;16.45;;;9.50;99.90;;;;;;5092543;28;20598;-45
2022/04/23 04:29:45;;;;;;;21.77;16.10;;;9.50;99.90;;;;;;5092581;28;20181;-44
2022/04/23 04:32:13;;;;;;;25.20;17.45;;;9.50;99.90;;;;;;5092237;28;20208;-44
2022/04/23 04:34:39;;;;;;;23.77;17.25;;;9.50;99.90;;;;;;5092500;28;20262;-44
2022/04/23 04:37:09;;;;;;;18.75;16.10;;;9.40;99.90;;;;;;5092469;28;20201;-44
2022/04/23 04:39:39;;;;;;;20.92;16.15;;;9.50;99.90;;;;;;5092103;28;20176;-45
2022/04/23 04:42:06;;;;;;;20.38;16.75;;;9.50;99.90;;;;;;5092132;28;20170;-44
2022/04/23 04:44:32;;;;;;;21.85;16.98;;;9.50;99.90;;;;;;5091931;28;20656;-44
2022/04/23 04:46:57;;;;;;;20.52;16.88;;;9.50;99.90;;;;;;5091976;28;20641;-44
2022/04/23 04:49:23;;;;;;;23.33;17.02;;;9.50;99.90;;;;;;5091794;28;20175;-43
2022/04/23 04:51:49;;;;;;;18.52;15.45;;;9.60;99.90;;;;;;5092187;28;20291;-44
2022/04/23 04:54:17;;;;;;;22.95;17.35;;;9.60;99.90;;;;;;5091952;28;20169;-44
2022/04/23 04:56:47;;;;;;;18.80;16.17;;;9.60;99.90;;;;;;5091880;28;20219;-45
2022/04/23 04:59:13;;;;;;;19.27;16.35;;;9.60;99.90;;;;;;5091703;28;20161;-43
2022/04/23 05:01:39;;;;;;;18.13;16.20;;;9.60;99.90;;;;;;5091689;28;20212;-44
2022/04/23 05:04:05;;;;;;;18.15;14.88;;;9.60;99.90;;;;;;5091747;28;20537;-43
2022/04/23 05:06:31;;;;;;;20.42;16.42;;;9.60;99.90;;;;;;5090511;28;20256;-46
2022/04/23 05:08:56;;;;;;;19.48;15.60;;;9.70;99.90;;;;;;5091753;28;20909;-46
2022/04/23 05:11:22;;;;;;;21.90;16.20;;;9.80;99.90;;;;;;5091808;28;20541;-46
2022/04/23 05:13:47;;;;;;;20.60;15.65;;;9.80;99.90;;;;;;5091578;28;20180;-44
2022/04/23 05:16:13;;;;;;;19.90;16.08;;;9.90;99.90;;;;;;5091517;28;20622;-45
2022/04/23 05:18:39;;;;;;;22.13;16.52;;;9.90;99.90;;;;;;5091493;28;20166;-44
2022/04/23 05:21:05;;;;;;;17.88;15.68;;;10.00;99.90;;;;;;5091445;28;20166;-44
2022/04/23 05:23:30;;;;;;;20.25;15.70;;;10.10;99.90;;;;;;5091363;28;20508;-44
2022/04/23 05:25:56;;;;;;;25.08;17.95;;;10.10;99.90;;;;;;5091412;28;20176;-44
2022/04/23 05:28:22;;;;;;;20.08;16.40;;;10.20;99.90;;;;;;5091484;28;20169;-45
2022/04/23 05:30:48;;;;;;;19.20;16.88;;;10.30;99.90;;;;;;5091861;28;20179;-45
2022/04/23 05:33:13;;;;;;;18.77;14.40;;;10.30;99.90;;;;;;5091137;28;20244;-44
2022/04/23 05:35:39;;;;;;;17.20;14.55;;;10.40;99.90;;;;;;5091201;28;20173;-44
2022/04/23 05:38:05;;;;;;;18.27;15.07;;;10.40;99.90;;;;;;5091444;28;20527;-50
2022/04/23 05:40:31;;;;;;;17.95;15.32;;;10.50;99.90;;;;;;5090057;28;20169;-51
2022/04/23 05:43:00;;;;;;;18.35;15.73;;;10.60;99.90;;;;;;5091269;28;20200;-51
2022/04/23 05:45:29;;;;;;;20.25;15.75;;;10.70;99.90;;;;;;5091020;28;20697;-51
2022/04/23 05:47:55;;;;;;;19.05;15.00;;;10.80;99.90;;;;;;5091280;28;20178;-51
2022/04/23 05:50:21;;;;;;;19.45;15.98;;;10.90;99.90;;;;;;5091269;28;20539;-50
2022/04/23 05:52:47;;;;;;;17.95;15.60;;;10.90;99.90;;;;;;5090943;28;20201;-50
2022/04/23 05:55:13;;;;;;;23.05;15.93;;;11.00;99.90;;;;;;5090861;28;20165;-45
2022/04/23 05:57:39;;;;;;;18.48;15.32;;;11.00;99.90;;;;;;5090853;28;20177;-52
2022/04/23 06:00:06;;;;;;;19.90;15.63;;;11.00;99.90;;;;;;5090823;28;20236;-45
2022/04/23 06:02:32;;;;;;;17.65;15.35;;;11.00;99.90;;;;;;5090497;28;20229;-44
2022/04/23 06:04:58;;;;;;;18.75;15.65;;;11.00;99.90;;;;;;5090456;28;20169;-46
2022/04/23 06:07:24;;;;;;;19.65;15.88;;;11.10;99.90;;;;;;5090747;28;20166;-44
2022/04/23 06:09:50;;;;;;;20.58;16.25;;;11.20;99.90;;;;;;5091103;28;20249;-50
2022/04/23 06:12:15;;;;;;;19.30;14.75;;;11.40;99.90;;;;;;5090604;28;20201;-46
2022/04/23 06:14:41;;;;;;;18.23;15.55;;;11.40;99.90;;;;;;5090724;28;20173;-50
2022/04/23 06:17:10;;;;;;;21.13;15.80;;;11.50;99.90;;;;;;5090878;28;20209;-44
2022/04/23 06:19:36;;;;;;;19.52;14.10;;;11.70;99.90;;;;;;5090969;28;20165;-45
2022/04/23 06:22:02;;;;;;;20.88;15.77;;;11.80;99.90;;;;;;5090772;28;20174;-44
2022/04/23 06:24:27;;;;;;;17.80;15.65;;;11.90;99.90;;;;;;5090629;28;20169;-44
2022/04/23 06:26:53;;;;;;;20.50;15.20;;;12.00;99.90;;;;;;5090227;28;20176;-44
2022/04/23 06:29:18;;;;;;;17.98;15.63;;;12.20;99.90;;;;;;5089595;28;20246;-45
2022/04/23 06:31:44;;;;;;;20.08;15.27;;;12.20;99.90;;;;;;5090836;28;20199;-45
2022/04/23 06:34:09;;;;;;;18.27;15.18;;;12.30;99.90;;;;;;5092020;28;20578;-45
2022/04/23 06:36:36;;;;;;;17.63;15.27;;;12.50;99.90;;;;;;5094303;28;20173;-49
2022/04/23 06:39:03;;;;;;;18.23;15.02;;;12.50;99.90;;;;;;5094522;28;20170;-50
2022/04/23 06:41:28;;;;;;;18.45;14.75;;;12.50;99.90;;;;;;5093158;28;20170;-50
2022/04/23 06:43:54;;;;;;;20.20;14.50;;;12.60;99.90;;;;;;5094275;28;20178;-47
2022/04/23 06:46:19;;;;;;;17.88;14.60;;;12.70;99.90;;;;;;5093142;28;20192;-50
2022/04/23 06:48:45;;;;;;;17.17;14.77;;;12.80;99.90;;;;;;5094164;28;20174;-48
2022/04/23 06:51:10;;;;;;;16.20;14.48;;;12.80;99.90;;;;;;5094029;28;20224;-49
2022/04/23 06:53:36;;;;;;;17.13;14.90;;;12.80;99.90;;;;;;5094247;28;20227;-46
2022/04/23 06:56:03;;;;;;;16.65;14.02;;;13.00;99.90;;;;;;5092903;28;20174;-46
2022/04/23 06:58:29;;;;;;;16.50;14.63;;;13.00;99.90;;;;;;5094177;28;20181;-46
2022/04/23 07:00:54;;;;;;;16.35;14.63;;;13.10;99.90;;;;;;5092696;28;20177;-46
2022/04/23 07:03:20;;;;;;;16.48;14.30;;;13.00;99.90;;;;;;5094154;28;20226;-47
2022/04/23 07:05:46;;;;;;;17.00;13.55;;;13.30;99.90;;;;;;5094246;28;20158;-48
2022/04/23 07:08:12;;;;;;;16.15;13.48;;;13.40;99.90;;;;;;5093789;28;20214;-44
2022/04/23 07:10:38;;;;;;;16.63;14.70;;;13.40;99.90;;;;;;5094530;28;20169;-46
2022/04/23 07:13:04;;;;;;;16.00;13.50;;;13.50;99.90;;;;;;5093691;28;20342;-46
2022/04/23 07:15:29;;;;;;;15.35;12.98;;;13.60;99.90;;;;;;5093796;28;20747;-46
2022/04/23 07:17:56;;;;;;;13.95;12.50;;;13.80;99.90;;;;;;5092722;28;20196;-45
2022/04/23 07:20:21;;;;;;;17.00;14.10;;;13.70;99.90;;;;;;5093915;28;20192;-49
2022/04/23 07:25:33;;;;;;;16.63;12.95;;;14.00;99.90;;;;;;5093520;28;20176;-47
2022/04/23 07:27:59;;;;;;;14.60;11.73;;;14.10;99.90;;;;;;5093346;28;20169;-50
2022/04/23 07:30:26;;;;;;;19.50;13.32;;;14.10;99.90;;;;;;5093073;28;20169;-48
2022/04/23 07:32:53;;;;;;;18.25;14.75;;;14.10;99.90;;;;;;5093684;28;20197;-50
2022/04/23 07:38:22;;;;;;;13.63;12.23;;;14.20;99.90;;;;;;5093514;28;20181;-50
2022/04/23 07:40:50;;;;;;;16.73;12.55;;;14.40;99.90;;;;;;5093255;28;20169;-47
2022/04/23 07:43:17;;;;;;;13.52;12.02;;;14.40;99.90;;;;;;5093305;28;20192;-51
2022/04/23 07:45:44;;;;;;;12.68;11.10;;;14.60;99.90;;;;;;5092780;28;20679;-45
2022/04/23 07:48:12;;;;;;;13.90;11.35;;;14.70;99.90;;;;;;5093074;28;20169;-43
2022/04/23 07:50:40;;;;;;;13.45;11.07;;;14.90;99.90;;;;;;5093321;28;20185;-44
2022/04/23 07:53:07;;;;;;;14.82;11.13;;;14.80;99.90;;;;;;5093180;28;20212;-44
2022/04/23 07:55:35;;;;;;;14.48;10.77;;;15.00;99.90;;;;;;5091859;28;20173;-48
2022/04/23 07:58:03;;;;;;;16.00;10.95;;;15.10;99.90;;;;;;5093203;28;20175;-45
2022/04/23 08:00:34;;;;;;;14.93;11.32;;;15.00;99.90;;;;;;5093122;28;20170;-46
2022/04/23 08:02:59;;;;;;;12.50;10.80;;;15.00;99.90;;;;;;5092628;28;20225;-46
2022/04/23 08:05:25;;;;;;;12.77;10.13;;;15.20;99.90;;;;;;5092921;28;20169;-48
2022/04/23 08:07:51;;;;;;;17.20;11.75;;;15.40;99.90;;;;;;5091774;28;20162;-50
2022/04/23 08:10:17;;;;;;;11.50;9.00;;;15.40;99.90;;;;;;5091449;28;20169;-47
2022/04/23 08:12:42;;;;;;;11.25;10.15;;;15.30;99.90;;;;;;5092454;28;20205;-46
2022/04/23 08:15:09;;;;;;;16.00;9.80;;;15.50;99.90;;;;;;5092456;28;20178;-46
2022/04/23 08:17:34;;;;;;;13.63;10.80;;;15.60;99.90;;;;;;5092702;28;20169;-44
2022/04/23 08:20:00;;;;;;;10.70;9.60;;;15.70;99.90;;;;;;5092271;28;20166;-45
2022/04/23 08:22:26;;;;;;;15.45;10.02;;;15.70;99.90;;;;;;5092275;28;20169;-44
2022/04/23 08:24:51;;;;;;;10.80;9.70;;;15.70;99.90;;;;;;5092762;28;20218;-43
2022/04/23 08:27:17;;;;;;;11.07;9.88;;;15.80;99.90;;;;;;5092317;28;20257;-44
2022/04/23 08:32:27;;;;;;;12.13;9.65;;;16.10;99.90;;;;;;5092278;28;20219;-44
2022/04/23 08:34:53;;;;;;;11.07;9.90;;;16.10;99.90;;;;;;5092670;28;20161;-46
2022/04/23 08:37:19;;;;;;;9.55;8.48;;;16.10;99.90;;;;;;5092643;28;20172;-44
2022/04/23 08:39:47;;;;;;;11.13;9.48;;;16.10;99.90;;;;;;5092257;28;20214;-43
2022/04/23 08:42:16;;;;;;;15.43;10.13;;;16.20;99.90;;;;;;5092328;28;20177;-44
2022/04/23 08:44:42;;;;;;;11.43;9.20;;;16.50;99.90;;;;;;5092115;28;20535;-44
2022/04/23 08:47:10;;;;;;;15.35;9.70;;;16.50;99.90;;;;;;5091981;28;20173;-44
2022/04/23 08:49:40;;;;;;;12.40;10.05;;;16.60;99.90;;;;;;5091852;28;20170;-44
2022/04/23 08:52:16;;;;;;;12.50;9.82;;;16.70;99.90;;;;;;5091733;28;20212;-48
2022/04/23 08:54:42;;;;;;;11.70;9.65;;;16.90;99.90;;;;;;5091683;28;20218;-49
2022/04/23 08:57:08;;;;;;;14.73;9.57;;;17.00;99.90;;;;;;5089797;28;20201;-51
2022/04/23 08:59:34;;;;;;;14.73;9.35;;;17.00;99.90;;;;;;5090346;28;20258;-45
2022/04/23 09:02:02;;;;;;;21.15;10.82;;;17.00;99.90;;;;;;5090097;28;20225;-44
2022/04/23 09:04:29;;;;;;;11.80;9.88;;;17.10;99.90;;;;;;5092110;28;20169;-46
2022/04/23 09:06:55;;;;;;;11.02;8.63;;;17.00;99.90;;;;;;5091622;28;20169;-46
2022/04/23 09:09:21;;;;;;;15.88;9.32;;;16.80;99.90;;;;;;5091939;28;20192;-50
2022/04/23 09:11:57;;;;;;;12.43;9.00;;;17.20;99.90;;;;;;5090419;28;20238;-51
2022/04/23 09:14:27;;;;;;;12.05;10.13;;;17.30;99.90;;;;;;5090798;28;20173;-45
2022/04/23 09:25:15;;;;;;;9.88;8.95;;;17.70;99.90;;;;;;5091622;28;20180;-49
2022/04/23 09:27:43;;;;;;;11.20;8.43;;;17.60;99.90;;;;;;5090230;28;20190;-49
2022/04/23 09:30:10;;;;;;;9.70;8.35;;;17.70;99.90;;;;;;5091271;28;20700;-49
2022/04/23 09:32:36;;;;;;;12.63;8.63;;;17.80;99.90;;;;;;5091085;28;20303;-47
2022/04/23 09:35:09;;;;;;;11.00;9.38;;;17.80;99.90;;;;;;5091442;28;20168;-46
2022/04/23 09:40:26;;;;;;;11.80;8.32;;;17.10;99.90;;;;;;5091167;28;20188;-48
2022/04/23 09:43:02;;;;;;;10.20;8.93;;;17.80;99.90;;;;;;5091598;28;20173;-44
2022/04/23 09:45:31;;;;;;;9.73;8.32;;;17.90;99.90;;;;;;5089879;28;20227;-44
2022/04/23 09:48:14;;;;;;;9.23;8.15;;;18.20;99.90;;;;;;5091043;28;20652;-44
2022/04/23 09:50:41;;;;;;;10.45;9.27;;;18.40;99.90;;;;;;5091330;28;20181;-44
2022/04/23 09:53:12;;;;;;;10.20;8.82;;;18.20;99.90;;;;;;5091266;28;20575;-48
2022/04/23 09:55:39;;;;;;;11.48;8.30;;;18.50;99.90;;;;;;5091294;28;20508;-44
2022/04/23 09:58:07;;;;;;;10.07;7.57;;;18.50;99.90;;;;;;5091256;28;20633;-45
2022/04/23 10:00:35;;;;;;;7.93;7.10;;;18.60;99.90;;;;;;5090919;28;20169;-44
2022/04/23 10:03:03;;;;;;;8.27;7.13;;;18.70;99.90;;;;;;5090985;28;20209;-45
2022/04/23 10:05:29;;;;;;;8.82;7.70;;;18.60;99.90;;;;;;5091653;28;20282;-44
2022/04/23 10:07:57;;;;;;;9.23;7.93;;;18.70;99.90;;;;;;5092457;28;20267;-44
2022/04/23 10:10:28;;;;;;;9.98;7.95;;;18.70;99.90;;;;;;5095269;28;20173;-44
2022/04/23 10:12:56;;;;;;;15.68;8.35;;;18.80;99.90;;;;;;5095010;28;20204;-45
2022/04/23 10:15:23;;;;;;;9.88;8.88;;;19.10;99.90;;;;;;5095264;28;20622;-44
2022/04/23 10:17:50;;;;;;;10.35;7.53;;;19.00;99.90;;;;;;5095302;28;20157;-44
2022/04/23 10:20:16;;;;;;;10.32;8.43;;;19.40;99.90;;;;;;5093525;28;20630;-44
2022/04/23 10:23:13;;;;;;;12.50;9.80;;;19.40;99.90;;;;;;5093673;28;20254;-51
2022/04/23 10:25:50;;;;;;;10.55;9.45;;;19.20;99.90;;;;;;5094677;28;20177;-49
2022/04/23 10:28:18;;;;;;;10.98;9.20;;;19.00;99.90;;;;;;5094708;28;20225;-50
2022/04/23 10:30:46;;;;;;;10.10;9.10;;;18.90;99.90;;;;;;5094455;28;20166;-50
2022/04/23 10:33:28;;;;;;;11.73;8.82;;;19.00;99.90;;;;;;5094296;28;20204;-52
2022/04/23 10:36:13;;;;;;;9.35;8.48;;;18.90;99.90;;;;;;5094528;28;20165;-47
2022/04/23 10:38:42;;;;;;;10.30;8.90;;;19.10;99.90;;;;;;5094223;28;20169;-50
2022/04/23 10:41:10;;;;;;;16.73;10.85;;;19.20;99.90;;;;;;5094216;28;20188;-52
2022/04/23 10:43:46;;;;;;;11.45;10.23;;;19.30;99.90;;;;;;5094048;28;20184;-49
2022/04/23 10:46:38;;;;;;;8.45;7.47;;;19.60;99.90;;;;;;5094320;28;20237;-50
2022/04/23 10:49:20;;;;;;;10.98;8.00;;;19.90;99.90;;;;;;5093130;28;20158;-49
2022/04/23 10:51:54;;;;;;;10.23;8.80;;;19.80;99.90;;;;;;5094072;28;20204;-49
2022/04/23 10:54:40;;;;;;;12.65;8.90;;;19.80;99.90;;;;;;5094532;28;20177;-47
2022/04/23 10:57:07;;;;;;;10.48;8.25;;;19.30;99.90;;;;;;5093802;28;20571;-48
2022/04/23 10:59:42;;;;;;;8.65;7.55;;;19.20;99.90;;;;;;5094244;28;20181;-51
2022/04/23 11:02:13;;;;;;;8.38;7.50;;;19.50;99.90;;;;;;5093829;28;20256;-46
2022/04/23 11:13:27;;;;;;;10.50;9.10;;;20.20;99.90;;;;;;5093497;28;20258;-51
2022/04/23 11:16:16;;;;;;;10.35;7.47;;;20.20;99.90;;;;;;5094154;28;20176;-49
2022/04/23 11:18:43;;;;;;;10.30;7.68;;;20.50;99.90;;;;;;5093530;28;20165;-44
2022/04/23 11:21:20;;;;;;;11.65;9.35;;;20.50;99.90;;;;;;5093253;28;20170;-44
2022/04/23 11:23:47;;;;;;;9.40;8.50;;;19.90;99.90;;;;;;5093443;28;20165;-45
2022/04/23 11:26:22;;;;;;;12.90;10.00;;;19.70;99.90;;;;;;5093639;28;20252;-45
2022/04/23 11:28:57;;;;;;;10.88;9.00;;;19.50;99.90;;;;;;5093251;28;20306;-45
2022/04/23 11:31:24;;;;;;;11.75;10.13;;;19.70;99.90;;;;;;5093861;28;20206;-45
2022/04/23 11:33:53;;;;;;;7.80;7.00;;;19.80;99.90;;;;;;5093865;28;20208;-45
2022/04/23 11:36:24;;;;;;;9.80;8.77;;;19.90;99.90;;;;;;5093514;28;20638;-44
2022/04/23 11:38:49;;;;;;;7.63;6.93;;;20.10;99.90;;;;;;5091754;28;20598;-45
2022/04/23 11:41:35;;;;;;;9.73;7.55;;;20.30;99.90;;;;;;5093241;28;20166;-44
2022/04/23 11:44:17;;;;;;;10.25;7.90;;;20.50;99.90;;;;;;5093048;28;20181;-47
2022/04/23 11:46:45;;;;;;;9.45;7.95;;;20.40;99.90;;;;;;5092853;28;20153;-45
2022/04/23 11:49:27;;;;;;;10.30;8.18;;;20.50;99.90;;;;;;5093463;28;20204;-45
2022/04/23 11:52:03;;;;;;;8.93;7.32;;;20.40;99.90;;;;;;5093218;28;20204;-44
2022/04/23 11:54:42;;;;;;;10.63;8.63;;;20.50;99.90;;;;;;5093178;28;20172;-44
2022/04/23 11:57:17;;;;;;;15.70;8.30;;;20.40;99.20;;;;;;5092789;28;20691;-44
2022/04/23 11:59:45;;;;;;;9.57;7.72;;;20.80;99.90;;;;;;5093105;28;20203;-45
2022/04/23 12:02:17;;;;;;;14.38;8.95;;;21.20;99.50;;;;;;5092744;28;20320;-47
2022/04/23 12:04:44;;;;;;;14.35;10.18;;;20.80;98.90;;;;;;5092576;28;20225;-45
2022/04/23 12:07:11;;;;;;;9.35;8.10;;;20.80;99.70;;;;;;5092635;28;20169;-44
2022/04/23 12:09:54;;;;;;;14.10;10.40;;;20.70;98.90;;;;;;5092914;28;20180;-44
2022/04/23 12:12:20;;;;;;;11.80;9.07;;;20.40;97.60;;;;;;5092747;28;20216;-45
2022/04/23 12:14:52;;;;;;;12.20;9.05;;;20.70;97.70;;;;;;5092463;28;20154;-44
2022/04/23 12:17:29;;;;;;;13.95;8.75;;;20.80;97.20;;;;;;5092511;28;20207;-45
2022/04/23 12:20:08;;;;;;;11.45;8.77;;;20.80;97.30;;;;;;5095450;28;20181;-44
2022/04/23 12:22:34;;;;;;;10.35;8.57;;;21.00;97.80;;;;;;5091045;28;20227;-46
2022/04/23 12:25:18;;;;;;;23.33;12.32;;;20.90;97.00;;;;;;5092327;28;20524;-46
2022/04/23 12:42:20;;;;;;;20.90;13.98;;;21.30;96.50;;;;;;5091939;28;20641;-48
2022/04/23 12:44:49;;;;;;;8.43;7.07;;;21.40;95.80;;;;;;5091655;28;20208;-49
2022/04/23 12:47:27;;;;;;;13.50;8.48;;;21.50;96.40;;;;;;5091807;28;20158;-49
2022/04/23 12:50:05;;;;;;;10.35;7.50;;;21.50;95.00;;;;;;5092114;28;20165;-46
2022/04/23 12:52:36;;;;;;;11.73;7.97;;;21.60;95.60;;;;;;5092203;28;20216;-46
2022/04/23 12:55:22;;;;;;;10.75;9.63;;;21.60;95.20;;;;;;5091697;28;20699;-45
2022/04/23 12:58:04;;;;;;;9.82;8.80;;;21.20;94.90;;;;;;5091795;28;20162;-46
2022/04/23 13:00:35;;;;;;;7.50;6.72;;;20.80;94.60;;;;;;5091734;28;20173;-49
2022/04/23 13:03:18;;;;;;;12.23;9.23;;;20.20;95.10;;;;;;5091954;28;20224;-51
2022/04/23 13:05:43;;;;;;;10.43;8.23;;;20.40;96.30;;;;;;5091628;28;20240;-47
2022/04/23 13:10:53;;;;;;;10.75;8.15;;;20.90;95.20;;;;;;5091390;28;20176;-44
2022/04/23 13:13:18;;;;;;;15.32;11.30;;;20.80;94.30;;;;;;5091585;28;20213;-48
2022/04/23 13:15:44;;;;;;;12.48;9.20;;;20.80;95.70;;;;;;5091677;28;20649;-46
2022/04/23 13:18:10;;;;;;;22.65;15.02;;;20.90;94.90;;;;;;5091376;28;20590;-48
2022/04/23 13:20:36;;;;;;;11.93;8.73;;;20.90;95.40;;;;;;5091503;28;20630;-46
2022/04/23 13:23:01;;;;;;;13.55;8.10;;;21.20;95.10;;;;;;5091152;28;20274;-45